createdAt,value
2018-08-03T00:00:11.428Z,6.20
2018-08-03T00:02:46.585Z,2.47
2018-08-03T00:05:21.636Z,4.17
2018-08-03T00:07:56.783Z,5.70
2018-08-03T00:10:32.009Z,2.37
2018-08-03T00:13:07.027Z,3.77
2018-08-03T00:15:41.967Z,3.23
2018-08-03T00:18:16.972Z,3.90
2018-08-03T00:20:51.973Z,3.63
2018-08-03T00:23:27.028Z,7.83
2018-08-03T00:26:02.028Z,4.50
2018-08-03T00:28:37.123Z,4.03
2018-08-03T00:31:12.079Z,3.77
2018-08-03T00:33:47.219Z,3.80
2018-08-03T00:36:22.353Z,3.13
2018-08-03T00:38:57.468Z,7.40
2018-08-03T00:41:32.547Z,2.97
2018-08-03T00:44:07.741Z,5.27
2018-08-03T00:46:42.824Z,4.53
2018-08-03T00:49:17.849Z,4.70
2018-08-03T00:51:53.009Z,3.93
2018-08-03T00:54:27.996Z,3.07
2018-08-03T00:57:03.207Z,6.60
2018-08-03T00:59:38.304Z,2.70
2018-08-03T01:02:13.336Z,2.93
2018-08-03T01:04:48.223Z,5.90
2018-08-03T01:07:23.256Z,3.57
2018-08-03T01:09:58.228Z,4.50
2018-08-03T01:12:33.205Z,6.43
2018-08-03T01:15:08.383Z,3.50
2018-08-03T01:17:43.325Z,3.10
2018-08-03T01:20:18.427Z,6.53
2018-08-03T01:22:53.480Z,4.97
2018-08-03T01:25:28.740Z,4.80
2018-08-03T01:28:03.828Z,4.43
2018-08-03T01:30:38.927Z,8.00
2018-08-03T01:33:14.116Z,5.73
2018-08-03T01:35:49.160Z,4.80
2018-08-03T01:38:24.253Z,3.07
2018-08-03T01:40:59.358Z,7.77
2018-08-03T01:43:34.452Z,7.97
2018-08-03T01:46:09.511Z,7.57
2018-08-03T01:48:44.540Z,6.03
2018-08-03T01:51:20.428Z,5.67
2018-08-03T01:53:55.556Z,5.47
2018-08-03T01:56:30.704Z,3.63
2018-08-03T01:59:05.793Z,3.27
2018-08-03T02:01:40.972Z,4.73
2018-08-03T02:04:15.948Z,6.53
2018-08-03T02:06:51.051Z,5.80
2018-08-03T02:09:26.109Z,4.30
2018-08-03T02:12:01.083Z,4.43
2018-08-03T02:14:36.141Z,6.33
2018-08-03T02:17:11.204Z,6.60
2018-08-03T02:19:46.184Z,4.50
2018-08-03T02:22:21.140Z,4.00
2018-08-03T02:24:56.276Z,5.40
2018-08-03T02:27:31.528Z,3.97
2018-08-03T02:30:06.655Z,5.00
2018-08-03T02:32:41.616Z,5.57
2018-08-03T02:35:16.518Z,4.03
2018-08-03T02:37:51.560Z,6.43
2018-08-03T02:40:26.620Z,4.77
2018-08-03T02:43:01.697Z,7.47
2018-08-03T02:45:36.916Z,5.13
2018-08-03T02:48:11.981Z,4.07
2018-08-03T02:50:47.109Z,4.87
2018-08-03T02:53:22.080Z,5.10
2018-08-03T02:55:57.224Z,6.27
2018-08-03T02:58:32.178Z,5.63
2018-08-03T03:01:07.846Z,5.13
2018-08-03T03:03:42.918Z,4.57
2018-08-03T03:06:18.077Z,5.70
2018-08-03T03:08:53.193Z,6.83
2018-08-03T03:11:28.189Z,5.90
2018-08-03T03:14:03.494Z,9.37
2018-08-03T03:16:38.477Z,6.20
2018-08-03T03:19:13.640Z,4.87
2018-08-03T03:21:48.784Z,7.57
2018-08-03T03:24:23.796Z,5.90
2018-08-03T03:26:58.820Z,6.23
2018-08-03T03:29:33.941Z,6.20
2018-08-03T03:32:09.064Z,4.77
2018-08-03T03:34:44.192Z,5.40
2018-08-03T03:37:19.408Z,6.83
2018-08-03T03:39:54.344Z,6.63
2018-08-03T03:42:29.444Z,6.43
2018-08-03T03:45:04.976Z,6.10
2018-08-03T03:47:39.904Z,8.63
2018-08-03T03:50:15.040Z,11.13
2018-08-03T03:52:50.140Z,7.00
2018-08-03T03:55:25.360Z,7.00
2018-08-03T03:58:00.324Z,7.23
2018-08-03T04:00:35.374Z,4.80
2018-08-03T04:03:10.414Z,8.73
2018-08-03T04:05:45.528Z,11.83
2018-08-03T04:08:20.528Z,9.07
2018-08-03T04:10:55.685Z,9.67
2018-08-03T04:13:31.139Z,7.10
2018-08-03T04:16:06.224Z,6.50
2018-08-03T04:18:41.187Z,7.30
2018-08-03T04:21:16.292Z,6.37
2018-08-03T04:23:51.253Z,9.57
2018-08-03T04:26:26.243Z,6.63
2018-08-03T04:29:01.228Z,7.20
2018-08-03T04:31:36.296Z,11.53
2018-08-03T04:34:11.407Z,8.43
2018-08-03T04:36:46.493Z,8.23
2018-08-03T04:39:21.504Z,8.13
2018-08-03T04:41:56.739Z,9.73
2018-08-03T04:44:31.657Z,11.17
2018-08-03T04:47:06.654Z,6.87
2018-08-03T04:49:41.628Z,11.10
2018-08-03T04:52:16.600Z,11.07
2018-08-03T04:54:51.709Z,12.83
2018-08-03T04:57:27.167Z,11.27
2018-08-03T05:00:02.164Z,8.00
2018-08-03T05:02:37.244Z,8.20
2018-08-03T05:05:12.382Z,6.70
2018-08-03T05:07:47.569Z,7.53
2018-08-03T05:10:22.496Z,7.27
2018-08-03T05:12:57.649Z,8.77
2018-08-03T05:15:32.578Z,6.27
2018-08-03T05:18:08.016Z,6.73
2018-08-03T05:20:42.983Z,7.53
2018-08-03T05:23:18.024Z,12.23
2018-08-03T05:25:53.164Z,7.93
2018-08-03T05:28:27.958Z,12.43
2018-08-03T05:31:02.784Z,11.20
2018-08-03T05:33:37.727Z,14.80
2018-08-03T05:36:12.837Z,14.13
2018-08-03T05:38:47.757Z,10.67
2018-08-03T05:41:22.708Z,10.30
2018-08-03T05:43:57.996Z,12.37
2018-08-03T05:46:32.804Z,11.27
2018-08-03T05:49:07.744Z,10.60
2018-08-03T05:51:42.960Z,10.37
2018-08-03T05:54:18.099Z,13.20
2018-08-03T05:56:53.802Z,8.13
2018-08-03T05:59:28.876Z,12.17
2018-08-03T06:02:04.048Z,10.33
2018-08-03T06:04:39.060Z,9.17
2018-08-03T06:07:14.196Z,8.43
2018-08-03T06:09:49.295Z,16.97
2018-08-03T06:12:24.483Z,10.80
2018-08-03T06:14:59.592Z,8.23
2018-08-03T06:17:34.572Z,12.33
2018-08-03T06:20:11.732Z,9.80
2018-08-03T06:22:46.776Z,10.73
2018-08-03T06:25:21.848Z,10.17
2018-08-03T06:27:56.799Z,7.60
2018-08-03T06:30:31.939Z,10.23
2018-08-03T06:33:07.216Z,10.67
2018-08-03T06:35:42.207Z,9.70
2018-08-03T06:38:17.204Z,9.13
2018-08-03T06:40:52.420Z,9.43
2018-08-03T06:43:27.543Z,11.90
2018-08-03T06:46:02.716Z,9.37
2018-08-03T06:48:37.740Z,15.97
2018-08-03T06:51:12.721Z,33.37
2018-08-03T06:53:47.964Z,20.80
2018-08-03T06:56:23.216Z,12.47
2018-08-03T06:58:58.320Z,11.33
2018-08-03T07:01:33.340Z,12.90
2018-08-03T07:04:09.349Z,23.70
2018-08-03T07:06:44.308Z,18.53
2018-08-03T07:09:19.380Z,18.17
2018-08-03T07:11:55.584Z,16.97
2018-08-03T07:14:30.640Z,11.73
2018-08-03T07:17:05.760Z,13.23
2018-08-03T07:19:40.768Z,9.77
2018-08-03T07:22:15.867Z,6.60
2018-08-03T07:24:52.291Z,14.73
2018-08-03T07:27:28.637Z,11.67
2018-08-03T07:30:04.389Z,13.70
2018-08-03T07:32:39.347Z,11.63
2018-08-03T07:35:14.297Z,9.57
2018-08-03T07:37:49.441Z,15.03
2018-08-03T07:40:24.604Z,14.90
2018-08-03T07:42:59.767Z,11.57
2018-08-03T07:45:34.632Z,10.60
2018-08-03T07:48:09.654Z,12.60
2018-08-03T07:50:44.796Z,9.93
2018-08-03T07:53:19.904Z,12.13
2018-08-03T07:55:55.020Z,12.57
2018-08-03T07:58:30.128Z,12.47
2018-08-03T08:01:05.236Z,11.50
2018-08-03T08:03:41.503Z,12.03
2018-08-03T08:06:16.673Z,10.13
2018-08-03T08:08:51.904Z,11.30
2018-08-03T08:11:27.109Z,10.75
2018-08-03T08:14:02.262Z,16.27
2018-08-03T08:16:37.412Z,12.80
2018-08-03T08:19:12.492Z,10.78
2018-08-03T08:21:48.815Z,10.38
2018-08-03T08:24:24.010Z,15.95
2018-08-03T08:26:59.160Z,14.98
2018-08-03T08:29:34.418Z,15.40
2018-08-03T08:32:09.589Z,15.03
2018-08-03T08:34:44.584Z,13.20
2018-08-03T08:37:19.732Z,10.83
2018-08-03T08:39:54.958Z,14.30
2018-08-03T08:42:30.074Z,9.17
2018-08-03T08:45:05.280Z,9.33
2018-08-03T08:47:40.403Z,10.13
2018-08-03T08:50:15.492Z,13.27
2018-08-03T08:52:50.661Z,7.57
2018-08-03T08:55:25.747Z,8.13
2018-08-03T08:58:00.756Z,5.53
2018-08-03T09:00:35.728Z,4.10
2018-08-03T09:03:10.915Z,7.93
2018-08-03T09:05:46.068Z,5.53
2018-08-03T09:08:21.176Z,5.40
2018-08-03T09:10:56.116Z,4.50
2018-08-03T09:13:31.316Z,4.47
2018-08-03T09:16:06.544Z,4.60
2018-08-03T09:18:41.573Z,5.00
2018-08-03T09:21:16.499Z,4.53
2018-08-03T09:23:51.575Z,4.53
2018-08-03T09:26:26.572Z,3.53
2018-08-03T09:29:01.525Z,5.10
2018-08-03T09:31:36.671Z,3.47
2018-08-03T09:34:11.603Z,4.03
2018-08-03T09:36:46.672Z,3.60
2018-08-03T09:39:21.778Z,6.97
2018-08-03T09:41:56.764Z,4.57
2018-08-03T09:44:31.879Z,2.77
2018-08-03T09:47:06.895Z,3.10
2018-08-03T09:49:41.848Z,3.83
2018-08-03T09:52:16.822Z,3.27
2018-08-03T09:54:51.967Z,7.97
2018-08-03T09:57:27.025Z,4.77
2018-08-03T10:00:02.056Z,4.37
2018-08-03T10:02:37.100Z,3.00
2018-08-03T10:05:12.469Z,2.70
2018-08-03T10:07:47.432Z,5.33
2018-08-03T10:10:22.476Z,4.53
2018-08-03T10:12:57.535Z,4.40
2018-08-03T10:15:32.674Z,2.80
2018-08-03T10:18:07.559Z,3.03
2018-08-03T10:20:42.503Z,5.17
2018-08-03T10:23:17.627Z,2.70
2018-08-03T10:25:52.965Z,2.67
2018-08-03T10:28:28.035Z,2.50
2018-08-03T10:31:03.133Z,3.03
2018-08-03T10:33:38.140Z,4.13
2018-08-03T10:36:13.260Z,5.27
2018-08-03T10:38:48.228Z,8.63
2018-08-03T10:41:23.320Z,3.43
2018-08-03T10:43:58.304Z,1.90
2018-08-03T10:46:33.440Z,5.23
2018-08-03T10:49:08.604Z,3.97
2018-08-03T10:51:43.368Z,5.67
2018-08-03T10:54:18.280Z,3.20
2018-08-03T10:56:53.353Z,2.60
2018-08-03T10:59:28.456Z,4.37
2018-08-03T11:02:03.598Z,2.47
2018-08-03T11:04:39.452Z,2.07
2018-08-03T11:07:14.604Z,4.13
2018-08-03T11:09:49.717Z,4.47
2018-08-03T11:12:24.808Z,4.50
2018-08-03T11:14:59.856Z,3.40
2018-08-03T11:17:34.944Z,3.10
2018-08-03T11:20:09.974Z,8.87
2018-08-03T11:22:45.396Z,12.97
2018-08-03T11:25:20.343Z,4.63
2018-08-03T11:27:55.297Z,4.10
2018-08-03T11:30:30.290Z,3.30
2018-08-03T11:33:05.357Z,8.87
2018-08-03T11:35:40.749Z,7.27
2018-08-03T11:38:15.752Z,10.87
2018-08-03T11:40:50.988Z,6.33
2018-08-03T11:43:26.008Z,3.70
2018-08-03T11:46:01.128Z,7.00
2018-08-03T11:48:36.392Z,5.65
2018-08-03T11:51:11.535Z,5.42
2018-08-03T11:53:46.689Z,3.67
2018-08-03T11:56:21.643Z,4.17
2018-08-03T11:58:56.727Z,6.47
2018-08-03T12:01:31.892Z,5.30
2018-08-03T12:04:06.859Z,3.80
2018-08-03T12:06:42.013Z,2.85
2018-08-03T12:09:17.032Z,3.50
2018-08-03T12:11:52.021Z,3.27
2018-08-03T12:14:27.028Z,3.52
2018-08-03T12:17:02.208Z,4.00
2018-08-03T12:19:37.673Z,3.90
2018-08-03T12:22:12.827Z,6.30
2018-08-03T12:24:47.780Z,5.87
2018-08-03T12:27:22.908Z,3.52
2018-08-03T12:29:57.964Z,3.98
2018-08-03T12:32:33.072Z,3.62
2018-08-03T12:35:08.184Z,2.25
2018-08-03T12:37:43.276Z,3.98
2018-08-03T12:40:18.493Z,3.95
2018-08-03T12:42:53.660Z,4.25
2018-08-03T12:45:33.995Z,3.67
2018-08-03T12:48:04.028Z,2.00
2018-08-03T12:50:39.076Z,5.12
2018-08-03T12:53:14.217Z,4.40
2018-08-03T12:55:49.408Z,3.97
2018-08-03T12:58:24.492Z,5.58
2018-08-03T13:00:59.568Z,4.03
2018-08-03T13:03:34.746Z,5.25
2018-08-03T13:06:09.856Z,5.35
2018-08-03T13:08:44.808Z,7.40
2018-08-03T13:11:20.011Z,7.22
2018-08-03T13:13:54.974Z,4.12
2018-08-03T13:16:29.896Z,6.25
2018-08-03T13:19:04.873Z,6.60
2018-08-03T13:21:41.074Z,7.03
2018-08-03T13:24:16.050Z,4.65
2018-08-03T13:26:51.201Z,4.33
2018-08-03T13:29:26.212Z,5.85
2018-08-03T13:32:01.220Z,5.83
2018-08-03T13:34:36.356Z,5.53
2018-08-03T13:37:11.436Z,5.53
2018-08-03T13:39:46.577Z,6.20
2018-08-03T13:42:38.637Z,5.28
2018-08-03T13:45:13.703Z,6.47
2018-08-03T13:47:48.720Z,12.28
2018-08-03T13:50:24.066Z,4.35
2018-08-03T13:52:59.083Z,7.45
2018-08-03T13:55:34.032Z,5.03
2018-08-03T13:58:09.009Z,4.65
2018-08-03T14:00:44.652Z,5.10
2018-08-03T14:03:19.797Z,5.47
2018-08-03T14:05:54.819Z,4.75
2018-08-03T14:08:29.949Z,5.25
2018-08-03T14:11:04.996Z,9.58
2018-08-03T14:13:39.916Z,6.28
2018-08-03T14:16:15.160Z,5.85
2018-08-03T14:18:50.241Z,5.00
2018-08-03T14:21:25.365Z,5.28
2018-08-03T14:24:00.524Z,5.70
2018-08-03T14:26:35.539Z,4.67
2018-08-03T14:29:10.546Z,4.80
2018-08-03T14:31:45.695Z,4.37
2018-08-03T14:34:20.786Z,7.00
2018-08-03T14:36:55.932Z,4.83
2018-08-03T14:39:30.973Z,4.40
2018-08-03T14:42:06.062Z,6.62
2018-08-03T14:44:41.227Z,3.98
2018-08-03T14:47:16.315Z,3.72
2018-08-03T14:49:51.628Z,4.22
2018-08-03T14:52:26.808Z,4.50
2018-08-03T14:55:02.108Z,4.50
2018-08-03T14:57:37.350Z,4.75
2018-08-03T15:00:12.533Z,4.55
2018-08-03T15:02:47.414Z,18.77
2018-08-03T15:05:22.501Z,15.15
2018-08-03T15:07:57.878Z,9.65
2018-08-03T15:10:33.028Z,7.22
2018-08-03T15:13:08.152Z,7.28
2018-08-03T15:15:43.201Z,4.87
2018-08-03T15:18:18.336Z,8.00
2018-08-03T15:20:53.283Z,6.83
2018-08-03T15:23:28.383Z,4.35
2018-08-03T15:26:03.438Z,5.37
2018-08-03T15:28:38.472Z,7.65
2018-08-03T15:31:13.428Z,6.97
2018-08-03T15:33:48.604Z,4.87
2018-08-03T15:36:23.532Z,4.60
2018-08-03T15:38:58.618Z,4.65
2018-08-03T15:41:33.656Z,5.08
2018-08-03T15:44:08.642Z,3.83
2018-08-03T15:46:43.687Z,5.72
2018-08-03T15:49:18.756Z,6.53
2018-08-03T15:51:53.970Z,5.65
2018-08-03T15:54:29.297Z,5.12
2018-08-03T15:57:04.640Z,4.60
2018-08-03T15:59:39.577Z,5.28
2018-08-03T16:02:14.589Z,6.28
2018-08-03T16:04:49.684Z,4.12
2018-08-03T16:07:24.880Z,4.87
2018-08-03T16:09:59.963Z,4.78
2018-08-03T16:12:34.783Z,5.25
2018-08-03T16:15:09.628Z,4.33
2018-08-03T16:17:44.640Z,3.27
2018-08-03T16:20:19.746Z,10.10
2018-08-03T16:22:54.848Z,6.65
2018-08-03T16:25:30.822Z,4.10
2018-08-03T16:28:05.833Z,4.40
2018-08-03T16:30:40.860Z,4.20
2018-08-03T16:33:16.005Z,5.60
2018-08-03T16:35:51.440Z,6.22
2018-08-03T16:38:26.515Z,4.28
2018-08-03T16:41:01.668Z,5.47
2018-08-03T16:43:36.651Z,5.00
2018-08-03T16:46:11.771Z,4.78
2018-08-03T16:48:46.930Z,4.28
2018-08-03T16:51:21.940Z,4.78
2018-08-03T16:53:57.225Z,3.90
2018-08-03T16:56:32.355Z,5.92
2018-08-03T16:59:07.483Z,4.67
2018-08-03T17:01:42.423Z,9.83
2018-08-03T17:04:17.395Z,4.67
2018-08-03T17:06:52.536Z,4.97
2018-08-03T17:09:27.668Z,5.15
2018-08-03T17:12:02.680Z,4.90
2018-08-03T17:14:37.723Z,4.47
2018-08-03T17:17:12.992Z,6.20
2018-08-03T17:19:48.106Z,6.58
2018-08-03T17:22:23.152Z,5.87
2018-08-03T17:24:58.160Z,7.58
2018-08-03T17:27:33.375Z,5.35
2018-08-03T17:30:08.578Z,4.00
2018-08-03T17:32:43.624Z,4.42
2018-08-03T17:35:18.649Z,3.90
2018-08-03T17:37:53.732Z,4.03
2018-08-03T17:40:28.848Z,6.15
2018-08-03T17:43:03.812Z,5.70
2018-08-03T17:45:38.935Z,6.92
2018-08-03T17:48:13.906Z,3.62
2018-08-03T17:50:49.012Z,5.65
2018-08-03T17:53:24.100Z,3.95
2018-08-03T17:55:59.562Z,6.72
2018-08-03T17:58:34.607Z,5.53
2018-08-03T18:01:10.360Z,3.85
2018-08-03T18:03:45.260Z,10.30
2018-08-03T18:06:20.817Z,3.85
2018-08-03T18:08:55.804Z,6.30
2018-08-03T18:11:30.921Z,8.13
2018-08-03T18:14:06.056Z,3.92
2018-08-03T18:16:41.296Z,5.17
2018-08-03T18:19:16.671Z,6.03
2018-08-03T18:21:51.653Z,4.12
2018-08-03T18:24:26.824Z,5.20
2018-08-03T18:27:01.848Z,3.52
2018-08-03T18:29:36.840Z,6.50
2018-08-03T18:32:11.952Z,3.72
2018-08-03T18:34:47.113Z,5.15
2018-08-03T18:37:22.099Z,5.35
2018-08-03T18:39:57.281Z,5.37
2018-08-03T18:42:32.225Z,6.42
2018-08-03T18:45:08.067Z,4.40
2018-08-03T18:47:43.188Z,4.00
2018-08-03T18:50:18.381Z,5.95
2018-08-03T18:52:53.383Z,8.18
2018-08-03T18:55:28.536Z,4.47
2018-08-03T18:58:03.649Z,4.95
2018-08-03T19:00:38.677Z,6.28
2018-08-03T19:03:13.466Z,3.60
2018-08-03T19:05:48.412Z,4.40
2018-08-03T19:08:23.547Z,4.83
2018-08-03T19:10:58.829Z,4.80
2018-08-03T19:13:33.936Z,4.60
2018-08-03T19:16:09.821Z,4.97
2018-08-03T19:18:44.848Z,5.50
2018-08-03T19:21:19.870Z,4.97
2018-08-03T19:23:54.853Z,7.30
2018-08-03T19:26:29.968Z,6.00
2018-08-03T19:29:05.178Z,7.93
2018-08-03T19:31:40.361Z,7.57
2018-08-03T19:34:15.376Z,6.77
2018-08-03T19:36:50.382Z,4.53
2018-08-03T19:39:25.510Z,5.90
2018-08-03T19:42:00.638Z,3.90
2018-08-03T19:44:35.796Z,4.85
2018-08-03T19:47:10.925Z,5.95
2018-08-03T19:49:45.864Z,10.72
2018-08-03T19:52:21.004Z,4.30
2018-08-03T19:54:56.012Z,3.12
2018-08-03T19:57:30.779Z,6.63
2018-08-03T20:00:08.072Z,3.80
2018-08-03T20:02:43.052Z,3.73
2018-08-03T20:05:18.268Z,5.67
2018-08-03T20:07:53.350Z,7.40
2018-08-03T20:10:28.440Z,5.00
2018-08-03T20:13:03.683Z,4.17
2018-08-03T20:15:38.688Z,3.60
2018-08-03T20:18:13.752Z,9.20
2018-08-03T20:20:48.964Z,6.07
2018-08-03T20:23:24.133Z,5.57
2018-08-03T20:25:59.274Z,7.33
2018-08-03T20:28:34.413Z,3.97
2018-08-03T20:31:09.367Z,3.87
2018-08-03T20:33:44.496Z,3.10
2018-08-03T20:36:19.524Z,4.23
2018-08-03T20:38:54.501Z,6.87
2018-08-03T20:41:29.707Z,3.93
2018-08-03T20:44:04.777Z,4.57
2018-08-03T20:46:39.911Z,7.73
2018-08-03T20:49:14.962Z,3.83
2018-08-03T20:51:50.049Z,4.87
2018-08-03T20:54:25.296Z,9.73
2018-08-03T20:57:00.450Z,5.93
2018-08-03T20:59:35.569Z,4.20
2018-08-03T21:02:10.592Z,5.97
2018-08-03T21:04:45.656Z,5.23
2018-08-03T21:07:20.760Z,3.40
2018-08-03T21:09:55.804Z,4.10
2018-08-03T21:12:30.829Z,4.73
2018-08-03T21:15:07.009Z,4.87
2018-08-03T21:17:42.067Z,7.50
2018-08-03T21:20:17.084Z,6.40
2018-08-03T21:22:52.085Z,4.33
2018-08-03T21:25:27.040Z,4.90
2018-08-03T21:28:02.117Z,3.13
2018-08-03T21:30:37.104Z,4.77
2018-08-03T21:33:11.953Z,4.20
2018-08-03T21:35:47.043Z,4.17
2018-08-03T21:38:22.187Z,4.70
2018-08-03T21:40:57.150Z,5.73
2018-08-03T21:43:32.284Z,4.73
2018-08-03T21:46:07.420Z,4.03
2018-08-03T21:48:42.460Z,2.37
2018-08-03T21:51:17.421Z,6.57
2018-08-03T21:53:52.959Z,3.50
2018-08-03T21:56:28.057Z,4.70
2018-08-03T21:59:03.085Z,4.03
2018-08-03T22:01:38.347Z,4.83
2018-08-03T22:04:13.344Z,3.30
2018-08-03T22:06:48.336Z,4.90
2018-08-03T22:09:23.392Z,2.83
2018-08-03T22:11:58.720Z,3.93
2018-08-03T22:14:33.768Z,7.70
2018-08-03T22:17:08.872Z,3.60
2018-08-03T22:19:43.824Z,2.90
2018-08-03T22:22:18.856Z,4.73
2018-08-03T22:24:53.820Z,4.67
2018-08-03T22:27:28.775Z,6.43
2018-08-03T22:30:04.527Z,5.47
2018-08-03T22:32:39.660Z,3.30
2018-08-03T22:35:14.495Z,2.57
2018-08-03T22:37:49.579Z,3.60
2018-08-03T22:40:24.591Z,4.33
2018-08-03T22:42:59.683Z,4.13
2018-08-03T22:45:34.914Z,6.77
2018-08-03T22:48:09.937Z,6.90
2018-08-03T22:50:45.076Z,4.07
2018-08-03T22:53:20.027Z,5.97
2018-08-03T22:55:55.044Z,3.00
2018-08-03T22:58:30.076Z,5.47
2018-08-03T23:01:05.367Z,3.63
2018-08-03T23:03:40.335Z,3.80
2018-08-03T23:06:15.436Z,3.57
2018-08-03T23:08:50.612Z,2.40
2018-08-03T23:11:25.672Z,4.53
2018-08-03T23:14:00.726Z,2.80
2018-08-03T23:16:35.855Z,3.47
2018-08-03T23:19:10.977Z,3.60
2018-08-03T23:21:46.044Z,2.90
2018-08-03T23:24:21.178Z,4.47
2018-08-03T23:26:56.140Z,2.60
2018-08-03T23:29:31.253Z,3.67
2018-08-03T23:32:06.352Z,4.63
2018-08-03T23:34:41.560Z,2.77
2018-08-03T23:37:16.719Z,4.90
2018-08-03T23:39:51.708Z,6.10
2018-08-03T23:42:26.752Z,3.03
2018-08-03T23:45:01.868Z,3.47
2018-08-03T23:47:37.158Z,2.80
2018-08-03T23:50:13.836Z,4.13
2018-08-03T23:52:49.668Z,3.30
2018-08-03T23:55:24.733Z,2.20
2018-08-03T23:57:59.852Z,4.77
